• Join FlightAware (Why Join?)
  • Login
  • US Flag 
10:57AM EDT


 

Airport Tracker/Info


-or-


 

Live Flight TrackerFlight Track Log ✈ N244A ✈ 10-Jul-2013 ✈ KFTW - KPWK

Flight Track Log - Related Links

Times and Time Zones

All times are in EDT time to prevent confusion due to time zone crossing. See the N244A flight status page for this flight to view local times or setup timezone preferences in your user account.

Time Position Orientation Groundspeed Altitude Reporting Facility
EDT Latitude Longitude Course Direction KTS MPH feet Rate Location/Type
04:42PM 32.8000 -97.3500 180° South 156 180 1,400  Level Dallas / Fort Worth TRACON
04:42PM 32.7500 -97.3500 180° South 211 243 3,200 2,460 Climbing Dallas / Fort Worth TRACON
04:44PM 32.7122 -97.3986 227° Southwest 237 273 6,800 2,880 Climbing Fort Worth Center
04:45PM 32.7833 -97.4108 352° North 174 200 10,000 3,060 Climbing Fort Worth Center
04:46PM 32.8500 -97.3567 34° Northeast 242 278 13,000 2,700 Climbing Fort Worth Center
04:47PM 32.9128 -97.2972 38° Northeast 271 312 15,400 2,100 Climbing Fort Worth Center
04:48PM 32.9878 -97.2350 35° Northeast 314 361 17,200 1,860 Climbing Fort Worth Center
04:49PM 33.0669 -97.1656 36° Northeast 338 389 19,200 2,160 Climbing Fort Worth Center
04:50PM 33.1461 -97.0933 37° Northeast 349 402 21,600 1,680 Climbing Fort Worth Center
04:51PM 33.2294 -97.0211 36° Northeast 354 407 22,600 960 Climbing Fort Worth Center
04:52PM 33.3106 -96.9486 37° Northeast 397 457 23,600 1,080 Climbing Fort Worth Center
04:53PM 33.4019 -96.8661 37° Northeast 408 470 24,800 1,080 Climbing Fort Worth Center
04:54PM 33.4978 -96.7931 32° Northeast 408 470 25,800 1,020 Climbing Fort Worth Center
04:55PM 33.6017 -96.7275 28° Northeast 403 464 26,900 1,080 Climbing Fort Worth Center
04:56PM 33.7036 -96.6619 28° Northeast 408 470 28,000 1,020 Climbing Fort Worth Center
04:57PM 33.8056 -96.5961 28° Northeast 413 475 29,000 960 Climbing Fort Worth Center
04:58PM 33.9094 -96.5275 29° Northeast 413 475 30,000 900 Climbing Fort Worth Center
04:59PM 34.0133 -96.4639 27° Northeast 413 475 30,800 900 Climbing Fort Worth Center
05:00PM 34.1150 -96.3900 31° Northeast 407 468 31,900 960 Climbing Fort Worth Center
05:01PM 34.2081 -96.3111 35° Northeast 396 456 32,800 780 Climbing Fort Worth Center
05:02PM 34.3033 -96.2319 34° Northeast 401 461 33,500 720 Climbing Fort Worth Center
05:03PM 34.4028 -96.1525 33° Northeast 406 467 34,300 600 Climbing Fort Worth Center
05:04PM 34.4981 -96.0731 34° Northeast 411 473 34,800 300 Climbing Fort Worth Center
05:05PM 34.5931 -95.9933 35° Northeast 416 479 35,000 60 Climbing Fort Worth Center
05:06PM 34.6903 -95.9108 35° Northeast 421 484 35,000  Level Fort Worth Center
05:07PM 34.7933 -95.8281 33° Northeast 421 484 35,000  Level Fort Worth Center
05:08PM 34.8739 -95.7583 35° Northeast 426 490 35,000  Level Fort Worth Center
05:09PM 34.9894 -95.6572 36° Northeast 442 509 35,000  Level Fort Worth Center
05:10PM 35.0925 -95.5689 35° Northeast 447 514 35,000  Level Fort Worth Center
05:11PM 35.1933 -95.4778 36° Northeast 447 514 35,000  Level Fort Worth Center
05:12PM 35.2961 -95.3864 36° Northeast 447 514 35,000  Level Fort Worth Center
05:13PM 35.4008 -95.2947 35° Northeast 447 514 35,000  Level Fort Worth Center
05:14PM 35.5161 -95.1881 37° Northeast 452 520 35,000  Level Kansas City Center
05:15PM 35.6183 -95.0950 36° Northeast 455 524 35,000  Level Kansas City Center
05:16PM 35.7197 -95.0056 36° Northeast 452 520 35,000  Level Memphis Center
05:17PM 35.8231 -94.9117 36° Northeast 452 520 35,000  Level Memphis Center
05:18PM 35.9267 -94.8197 36° Northeast 452 520 35,000  Level Memphis Center
05:19PM 36.0281 -94.7253 37° Northeast 452 520 35,000  Level Memphis Center
05:20PM 36.1314 -94.6306 37° Northeast 452 520 35,000  Level Memphis Center
05:21PM 36.2539 -94.5186 36° Northeast 459 528 35,000  Level Kansas City Center
05:22PM 36.3564 -94.4253 36° Northeast 458 527 35,000  Level Kansas City Center
05:23PM 36.4583 -94.3317 36° Northeast 458 527 35,000  Level Kansas City Center
05:24PM 36.5600 -94.2375 37° Northeast 457 526 35,000  Level Kansas City Center
05:25PM 36.6828 -94.1222 37° Northeast 459 528 35,000  Level Kansas City Center
05:26PM 36.7858 -94.0269 37° Northeast 460 529 35,000  Level Kansas City Center
05:27PM 36.8878 -93.9311 37° Northeast 460 529 35,000  Level Kansas City Center
05:28PM 36.9883 -93.8339 38° Northeast 458 527 35,000  Level Kansas City Center
05:29PM 37.0856 -93.7397 38° Northeast 460 529 35,000  Level Kansas City Center
05:30PM 37.2106 -93.6242 36° Northeast 462 532 35,000  Level Kansas City Center
05:31PM 37.3147 -93.5253 37° Northeast 465 535 35,000  Level Kansas City Center
05:32PM 37.4189 -93.4253 37° Northeast 468 539 35,000  Level Kansas City Center
05:33PM 37.5236 -93.3258 37° Northeast 468 539 35,000  Level Kansas City Center
05:35PM 37.6272 -93.2258 37° Northeast 468 539 35,000  Level Kansas City Center
05:36PM 37.7317 -93.1256 37° Northeast 468 539 35,000  Level Kansas City Center
05:37PM 37.8361 -93.0250 37° Northeast 468 539 35,000  Level Kansas City Center
05:38PM 37.9628 -92.9011 38° Northeast 472 543 35,000  Level Kansas City Center
05:39PM 38.0700 -92.7969 37° Northeast 477 549 35,000  Level Kansas City Center
05:40PM 38.1736 -92.6944 38° Northeast 485 558 35,000  Level Kansas City Center
05:41PM 38.2853 -92.5844 38° Northeast 482 555 35,000  Level Kansas City Center
05:42PM 38.3931 -92.4789 37° Northeast 482 555 35,000  Level Kansas City Center
05:43PM 38.5014 -92.3714 38° Northeast 487 560 35,000  Level Kansas City Center
05:44PM 38.6094 -92.2631 38° Northeast 489 563 35,000  Level Kansas City Center
05:45PM 38.7164 -92.1561 38° Northeast 487 560 35,000  Level Kansas City Center
05:46PM 38.8242 -92.0464 38° Northeast 490 564 35,000  Level Kansas City Center
05:47PM 38.9556 -91.9156 38° Northeast 496 571 35,000  Level Kansas City Center
05:48PM 39.0647 -91.8033 39° Northeast 498 573 35,000  Level Kansas City Center
05:49PM 39.1742 -91.6939 38° Northeast 498 573 35,000  Level Kansas City Center
05:50PM 39.2736 -91.5911 39° Northeast 502 578 35,000  Level Kansas City Center
05:51PM 39.4069 -91.4544 38° Northeast 506 582 35,000  Level Kansas City Center
05:52PM 39.5131 -91.3458 38° Northeast 505 581 35,000 -540 Level Kansas City Center
05:53PM 39.6281 -91.2281 38° Northeast 506 582 34,000 -1,260 Descending Kansas City Center
05:54PM 39.7436 -91.1064 39° Northeast 521 600 32,500 -1,440 Descending Kansas City Center
05:55PM 39.8458 -90.9969 39° Northeast 518 596 31,100 -780 Descending Kansas City Center
05:56PM 39.9767 -90.8617 38° Northeast 509 586 31,000 -120 Descending Kansas City Center
05:57PM 40.0847 -90.7517 38° Northeast 498 573 30,900  Descending Kansas City Center
05:58PM 40.1889 -90.6367 40° Northeast 493 567 31,000  Climbing Kansas City Center
05:59PM 40.2964 -90.5253 38° Northeast 491 565 31,000  Level Kansas City Center
06:00PM 40.4017 -90.4117 39° Northeast 489 563 31,000 -600 Level Kansas City Center
06:01PM 40.5103 -90.2972 39° Northeast 496 571 29,800 -1,500 Descending Kansas City Center
06:02PM 40.6372 -90.1586 40° Northeast 518 596 28,000 -1,620 Descending Kansas City Center
06:04PM 40.7636 -90.0247 39° Northeast 518 596 26,300 -2,160 Descending Chicago Center
06:05PM 40.8725 -89.9050 40° Northeast 513 590 23,300 -3,360 Descending Chicago Center
06:06PM 40.9975 -89.7642 40° Northeast 483 556 19,400 -3,240 Descending Chicago Center
06:07PM 41.0767 -89.6786 39° Northeast 448 516 16,700 -2,100 Descending Chicago Center
06:08PM 41.1775 -89.5581 42° Northeast 399 459 15,100 -1,200 Descending Chicago Center
06:09PM 41.2383 -89.4278 58° Northeast 413 475 14,300 -1,440 Descending Chicago Center
06:10PM 41.2975 -89.2922 60° Northeast 421 484 12,200 -1,620 Descending Chicago Center
06:11PM 41.3536 -89.1700 59° Northeast 413 475 11,000 -1,020 Descending Chicago Center
06:12PM 41.4156 -89.0444 57° Northeast 336 387 10,200 -1,020 Descending Chicago Center
06:13PM 41.4581 -88.9525 58° Northeast 296 341 9,000 -1,260 Descending Chicago Center
06:14PM 41.5017 -88.8592 58° Northeast 297 342 7,700 -1,140 Descending Chicago Center
06:15PM 41.5433 -88.7650 59° Northeast 296 341 6,700 -840 Descending Chicago Center
06:16PM 41.5864 -88.6747 57° Northeast 289 333 6,000 -360 Descending Chicago Center
06:17PM 41.6383 -88.5994 47° Northeast 281 323 6,000 -540 Level Chicago Center
06:18PM 41.7264 -88.5722 13° North 271 312 4,900 -960 Descending Chicago Center
06:19PM 41.7967 -88.5886 350° North 259 298 4,100 -480 Descending Chicago Center
06:20PM 41.8669 -88.6003 353° North 255 293 4,000 -60 Descending Chicago Center
06:21PM 41.9364 -88.6092 355° North 253 291 4,000 -60 Level Chicago Center
06:22PM 42.0075 -88.6039 North 255 293 3,900 -540 Descending Chicago Center
06:23PM 42.0717 -88.5547 30° Northeast 263 303 3,000 -480 Descending Chicago Center
06:24PM 42.1367 -88.4897 37° Northeast 257 296 3,000  Level Chicago Center
06:25PM 42.1722 -88.4094 59° Northeast 254 292 3,000  Level Chicago Center
06:26PM 42.2050 -88.3336 60° Northeast 239 275 3,000  Level Chicago Center
06:27PM 42.2108 -88.2594 84° East 224 258 3,000 -180 Level Chicago Center
06:28PM 42.2294 -88.1811 72° East 221 254 2,700 -300 Descending Chicago Center
06:29PM 42.2603 -88.0881 66° East 224 258 2,400 -180 Descending Chicago Center
06:30PM 42.2822 -88.0194 67° East 216 249 2,400  Level Chicago Center
06:31PM 42.2389 -87.9672 138° Southeast 225 259 2,400 -60 Level Chicago Center
06:32PM 42.1800 -87.9375 159° South 226 260 2,300 -120 Descending Chicago Center
06:34PM 42.1143 -87.9015 169° South  Level Estimated
06:41PM 42.1143 -87.9015 169° South  Level Estimated
06:42PM 42.1143 -87.9015 169° South  Level Estimated
06:43PM 42.1143 -87.9015 169° South  Level Estimated